Time;durP1;ratioP1;P1;durP2;ratioP2;P2;SDS_P1;SDS_P2;PMS_P1;PMS_P2;Temp;Humidity;BMP_temperature;BMP_pressure;BME280_temperature;BME280_humidity;BME280_pressure;Samples;Min_cycle;Max_cycle;Signal;HPM_P1;HPM_P2
2022/08/08 00:01:50;;;;;;;5.25;3.97;;;13.90;99.90;;;;;;4915696;29;20131;-63
2022/08/08 00:04:33;;;;;;;5.35;3.38;;;13.90;99.90;;;;;;4928629;29;20127;-63
2022/08/08 00:07:50;;;;;;;4.13;3.20;;;13.90;99.90;;;;;;4915186;29;20155;-64
2022/08/08 00:10:29;;;;;;;4.30;3.83;;;13.90;99.90;;;;;;4897778;29;20122;-63
2022/08/08 00:13:01;;;;;;;5.43;3.22;;;13.80;99.90;;;;;;4950334;29;20098;-64
2022/08/08 00:15:35;;;;;;;4.00;3.33;;;13.80;99.90;;;;;;4934470;29;20111;-65
2022/08/08 00:18:10;;;;;;;5.90;2.90;;;13.70;99.90;;;;;;4934296;29;20413;-63
2022/08/08 00:20:45;;;;;;;3.28;2.80;;;13.70;99.90;;;;;;4958566;28;20104;-63
2022/08/08 00:23:20;;;;;;;4.80;3.30;;;13.60;99.90;;;;;;4972612;28;20041;-64
2022/08/08 00:25:51;;;;;;;4.72;3.50;;;13.60;99.90;;;;;;4988830;28;20085;-65
2022/08/08 00:28:25;;;;;;;3.95;3.40;;;13.60;99.90;;;;;;4989127;28;20042;-65
2022/08/08 00:30:54;;;;;;;3.80;3.40;;;13.60;99.90;;;;;;4988923;28;20085;-62
2022/08/08 00:33:25;;;;;;;4.53;3.40;;;13.50;99.90;;;;;;4988848;28;20496;-63
2022/08/08 00:36:07;;;;;;;6.43;3.40;;;13.50;99.90;;;;;;4988901;28;20405;-64
2022/08/08 00:38:47;;;;;;;5.05;3.63;;;13.50;99.90;;;;;;4990892;28;20065;-64
2022/08/08 00:41:46;;;;;;;6.95;3.80;;;13.50;99.90;;;;;;4995293;28;20370;-64
2022/08/08 00:44:26;;;;;;;4.88;3.92;;;13.40;99.90;;;;;;4995218;28;20038;-65
2022/08/08 00:47:13;;;;;;;6.53;3.00;;;13.40;99.90;;;;;;5099592;28;20046;-63
2022/08/08 00:49:48;;;;;;;4.57;3.70;;;13.40;99.90;;;;;;5099722;28;20489;-65
2022/08/08 00:52:13;;;;;;;3.55;3.20;;;13.30;99.90;;;;;;5099244;28;20039;-64
2022/08/08 00:55:23;;;;;;;3.33;2.97;;;13.30;99.90;;;;;;5099419;28;20442;-64
2022/08/08 00:58:48;;;;;;;3.08;2.50;;;13.20;99.90;;;;;;5117623;28;20048;-64
2022/08/08 01:01:39;;;;;;;5.43;2.55;;;13.10;99.90;;;;;;5014537;28;20458;-63
2022/08/08 01:04:41;;;;;;;4.15;2.85;;;13.00;99.90;;;;;;5014680;28;20216;-62
2022/08/08 01:07:34;;;;;;;4.25;3.05;;;13.00;99.90;;;;;;4998216;28;20077;-64
2022/08/08 01:10:08;;;;;;;4.15;3.45;;;12.90;99.90;;;;;;4998277;28;20049;-63
2022/08/08 01:12:46;;;;;;;3.50;3.20;;;12.80;99.90;;;;;;4998606;28;20189;-62
2022/08/08 01:15:48;;;;;;;4.82;3.35;;;12.80;99.90;;;;;;4998160;28;20053;-63
2022/08/08 01:18:44;;;;;;;5.30;3.80;;;12.80;99.90;;;;;;4981815;28;20168;-64
2022/08/08 01:21:47;;;;;;;4.55;3.78;;;12.70;99.90;;;;;;4998282;28;20484;-63
2022/08/08 01:24:27;;;;;;;;;;;12.60;99.90;;;;;;4998349;28;20068;-64
2022/08/08 01:26:59;;;;;;;5.95;3.90;;;12.60;99.90;;;;;;4998572;28;20004;-63
2022/08/08 01:29:35;;;;;;;4.00;3.60;;;12.50;99.90;;;;;;4997991;28;20053;-63
2022/08/08 01:32:40;;;;;;;5.40;4.05;;;12.50;99.90;;;;;;5062809;28;20043;-63
2022/08/08 01:35:28;;;;;;;4.63;3.63;;;12.50;99.90;;;;;;5094803;28;20036;-64
2022/08/08 01:38:27;;;;;;;5.00;4.50;;;12.50;99.90;;;;;;5117468;28;20092;-63
2022/08/08 01:41:18;;;;;;;4.60;4.15;;;12.50;99.90;;;;;;5099078;28;20027;-62
2022/08/08 01:43:55;;;;;;;5.05;4.40;;;12.50;99.90;;;;;;5081940;28;20119;-65
2022/08/08 01:47:09;;;;;;;5.47;4.10;;;12.50;99.90;;;;;;5098794;28;20087;-64
2022/08/08 01:50:05;;;;;;;6.97;4.68;;;12.50;99.90;;;;;;4997087;28;20083;-65
2022/08/08 01:52:53;;;;;;;4.57;4.18;;;12.50;99.90;;;;;;5011247;28;20073;-62
2022/08/08 01:55:52;;;;;;;4.65;4.25;;;12.50;99.90;;;;;;4994617;28;20520;-64
2022/08/08 01:58:27;;;;;;;6.32;4.40;;;12.50;99.90;;;;;;4994836;28;20129;-65
2022/08/08 02:01:11;;;;;;;5.35;3.95;;;12.50;99.90;;;;;;5011094;28;20077;-63
2022/08/08 02:03:48;;;;;;;5.47;4.30;;;12.50;99.90;;;;;;4994479;28;20208;-64
2022/08/08 02:06:26;;;;;;;6.85;4.30;;;12.50;99.90;;;;;;4994499;28;20125;-64
2022/08/08 02:09:10;;;;;;;5.22;4.18;;;12.60;99.90;;;;;;5011071;28;20428;-63
2022/08/08 02:11:41;;;;;;;4.55;4.00;;;12.50;99.90;;;;;;5010861;28;20041;-63
2022/08/08 02:14:13;;;;;;;5.88;4.30;;;12.50;99.90;;;;;;5010746;28;20132;-64
2022/08/08 02:16:54;;;;;;;4.95;4.32;;;12.50;99.90;;;;;;5010926;28;20046;-63
2022/08/08 02:19:44;;;;;;;5.93;4.30;;;12.50;99.90;;;;;;4994354;28;20049;-62
2022/08/08 02:22:31;;;;;;;5.82;3.90;;;12.50;99.90;;;;;;5010751;28;20046;-64
2022/08/08 02:25:02;;;;;;;6.07;3.70;;;12.50;99.90;;;;;;4994704;28;20412;-65
2022/08/08 02:27:38;;;;;;;5.95;4.03;;;12.50;99.90;;;;;;5095300;28;20444;-63
2022/08/08 02:30:09;;;;;;;4.38;3.97;;;12.40;99.90;;;;;;5094832;28;20108;-63
2022/08/08 02:32:53;;;;;;;3.85;3.47;;;12.40;99.90;;;;;;5094797;28;20046;-64
2022/08/08 02:36:06;;;;;;;5.38;3.72;;;12.40;99.90;;;;;;5113073;28;20490;-63
2022/08/08 02:38:31;;;;;;;;;;;12.30;99.90;;;;;;5091097;28;20043;-62
2022/08/08 02:41:29;;;;;;;5.60;3.78;;;12.30;99.90;;;;;;5113251;28;19968;-63
2022/08/08 02:43:57;;;;;;;4.18;3.35;;;12.20;99.90;;;;;;5112368;28;20078;-62
2022/08/08 02:47:07;;;;;;;4.70;3.20;;;12.20;99.90;;;;;;5094578;28;20083;-63
2022/08/08 02:49:41;;;;;;;5.60;2.88;;;12.20;99.90;;;;;;4916613;29;20076;-64
2022/08/08 02:52:15;;;;;;;3.80;2.90;;;12.10;99.90;;;;;;4916860;29;20051;-62
2022/08/08 02:55:11;;;;;;;6.07;3.20;;;12.10;99.90;;;;;;4916554;29;20208;-64
2022/08/08 02:58:08;;;;;;;3.80;3.33;;;12.10;99.90;;;;;;4916686;29;20039;-64
2022/08/08 03:00:59;;;;;;;4.40;2.30;;;12.10;99.90;;;;;;4932446;29;20063;-64
2022/08/08 03:03:49;;;;;;;3.78;3.17;;;12.10;99.90;;;;;;4916897;29;20051;-63
2022/08/08 03:06:35;;;;;;;2.85;2.65;;;12.10;99.90;;;;;;4916618;29;20463;-63
2022/08/08 03:09:29;;;;;;;2.65;2.00;;;12.00;99.90;;;;;;4916812;29;20048;-65
2022/08/08 03:12:32;;;;;;;4.35;2.85;;;12.10;99.90;;;;;;4897225;29;20403;-63
2022/08/08 03:15:30;;;;;;;2.20;1.98;;;12.00;99.90;;;;;;4897424;29;20222;-64
2022/08/08 03:18:16;;;;;;;1.95;1.73;;;12.00;99.90;;;;;;4897693;29;20487;-63
2022/08/08 03:20:43;;;;;;;3.67;3.38;;;12.00;99.90;;;;;;4881992;29;20096;-63
2022/08/08 03:23:09;;;;;;;4.88;4.47;;;12.00;99.90;;;;;;4897840;29;20044;-63
2022/08/08 03:25:35;;;;;;;5.30;4.57;;;11.90;99.90;;;;;;4920193;28;20434;-63
2022/08/08 03:28:11;;;;;;;3.70;3.25;;;11.90;99.90;;;;;;5091684;28;20040;-64
2022/08/08 03:30:37;;;;;;;3.63;3.33;;;11.90;99.90;;;;;;5070006;28;20584;-64
2022/08/08 03:33:18;;;;;;;6.43;4.93;;;11.90;99.90;;;;;;5070161;28;20075;-63
2022/08/08 03:35:46;;;;;;;5.75;5.05;;;11.80;99.90;;;;;;5069888;28;20051;-62
2022/08/08 03:38:12;;;;;;;4.78;4.25;;;11.80;99.90;;;;;;5069982;28;20112;-63
2022/08/08 03:40:38;;;;;;;3.33;3.00;;;11.80;99.90;;;;;;5069893;28;20119;-64
2022/08/08 03:43:07;;;;;;;4.38;2.78;;;11.80;99.90;;;;;;5069927;28;20033;-64
2022/08/08 03:45:33;;;;;;;5.22;3.00;;;11.70;99.90;;;;;;5070006;28;20105;-64
2022/08/08 03:48:07;;;;;;;3.70;3.40;;;11.70;99.90;;;;;;5052906;28;20044;-63
2022/08/08 03:50:34;;;;;;;5.25;4.07;;;11.70;99.90;;;;;;5069934;28;20387;-62
2022/08/08 03:53:07;;;;;;;4.38;3.47;;;11.70;99.90;;;;;;5071141;28;20103;-62
2022/08/08 03:55:37;;;;;;;3.90;3.40;;;11.70;99.90;;;;;;5069896;28;20525;-64
2022/08/08 03:58:04;;;;;;;4.30;3.90;;;11.70;99.90;;;;;;5069639;28;20045;-63
2022/08/08 04:00:29;;;;;;;4.15;3.75;;;11.70;99.90;;;;;;5069462;28;20054;-63
2022/08/08 04:03:00;;;;;;;4.95;4.00;;;11.70;99.90;;;;;;5069692;28;20029;-62
2022/08/08 04:05:27;;;;;;;4.22;3.83;;;11.70;99.90;;;;;;5069908;28;20074;-63
2022/08/08 04:07:53;;;;;;;4.45;4.05;;;11.70;99.90;;;;;;5069401;28;20062;-64
2022/08/08 04:10:18;;;;;;;4.00;3.63;;;11.60;99.90;;;;;;5069495;28;20123;-64
2022/08/08 04:12:44;;;;;;;5.70;3.90;;;11.60;99.90;;;;;;5069065;28;20129;-64
2022/08/08 04:15:10;;;;;;;4.30;3.75;;;11.60;99.90;;;;;;5068826;28;20045;-63
2022/08/08 04:17:36;;;;;;;5.05;4.15;;;11.60;99.90;;;;;;5070768;28;20059;-64
2022/08/08 04:20:02;;;;;;;4.45;3.90;;;11.50;99.90;;;;;;5069282;28;20049;-64
2022/08/08 04:22:29;;;;;;;5.32;4.50;;;11.60;99.90;;;;;;5070773;28;20089;-64
2022/08/08 04:24:55;;;;;;;5.22;3.97;;;11.60;99.90;;;;;;5069101;28;20119;-63
2022/08/08 04:27:21;;;;;;;4.00;3.67;;;11.60;99.90;;;;;;5070467;28;20075;-63
2022/08/08 04:29:47;;;;;;;5.40;4.38;;;11.60;99.90;;;;;;5069226;28;20084;-63
2022/08/08 04:32:15;;;;;;;4.32;3.88;;;11.60;99.90;;;;;;5069113;28;20087;-64
2022/08/08 04:34:41;;;;;;;4.32;3.92;;;11.60;99.90;;;;;;5069109;28;20049;-64
2022/08/08 04:37:07;;;;;;;4.20;3.80;;;11.60;99.90;;;;;;5070628;28;20036;-64
2022/08/08 04:39:33;;;;;;;4.28;3.50;;;11.60;99.90;;;;;;5069661;28;20047;-63
2022/08/08 04:41:59;;;;;;;5.20;3.50;;;11.60;99.90;;;;;;5069212;28;20055;-63
2022/08/08 04:44:24;;;;;;;5.18;3.67;;;11.70;99.90;;;;;;5069157;28;20041;-63
2022/08/08 04:46:50;;;;;;;3.70;3.28;;;11.70;99.90;;;;;;5069407;28;20032;-63
2022/08/08 04:49:16;;;;;;;5.63;3.53;;;11.70;99.90;;;;;;5070290;28;20033;-63
2022/08/08 04:51:42;;;;;;;4.32;3.78;;;11.70;99.90;;;;;;5070469;28;20046;-62
2022/08/08 04:54:08;;;;;;;4.40;4.00;;;11.70;99.90;;;;;;5069378;28;20083;-63
2022/08/08 04:56:34;;;;;;;4.68;3.30;;;11.70;99.90;;;;;;5070304;28;20114;-63
2022/08/08 04:59:00;;;;;;;4.70;3.85;;;11.80;99.90;;;;;;5070189;28;20086;-63
2022/08/08 05:01:25;;;;;;;4.45;3.90;;;11.80;99.90;;;;;;5070157;28;20071;-64
2022/08/08 05:03:51;;;;;;;4.22;3.83;;;11.90;99.90;;;;;;5070187;28;20041;-62
2022/08/08 05:06:17;;;;;;;3.63;3.33;;;11.90;99.90;;;;;;5068807;28;20044;-62
2022/08/08 05:08:43;;;;;;;3.60;3.30;;;12.00;99.90;;;;;;5070297;28;20047;-62
2022/08/08 05:11:12;;;;;;;5.22;3.72;;;12.00;99.90;;;;;;5069141;28;20379;-63
2022/08/08 05:13:42;;;;;;;4.32;3.88;;;12.10;99.90;;;;;;5069044;28;20045;-63
2022/08/08 05:16:08;;;;;;;4.95;3.80;;;12.20;99.90;;;;;;5070023;28;20036;-63
2022/08/08 05:18:35;;;;;;;4.57;3.97;;;12.30;99.90;;;;;;5069146;28;20475;-64
2022/08/08 05:21:03;;;;;;;4.60;3.72;;;12.40;99.90;;;;;;5068803;28;20504;-64
2022/08/08 05:23:29;;;;;;;4.93;3.97;;;12.50;99.90;;;;;;5070011;28;20065;-64
2022/08/08 05:25:55;;;;;;;4.15;3.75;;;12.60;99.90;;;;;;5071369;28;20040;-63
2022/08/08 05:28:21;;;;;;;4.28;3.40;;;12.70;99.90;;;;;;5072587;28;20048;-64
2022/08/08 05:30:46;;;;;;;4.07;3.70;;;12.90;99.90;;;;;;5072379;28;20064;-64
2022/08/08 05:33:12;;;;;;;3.47;3.20;;;13.00;99.90;;;;;;5072368;28;20056;-63
2022/08/08 05:35:41;;;;;;;4.05;3.63;;;13.10;99.90;;;;;;5073712;28;20199;-62
2022/08/08 05:38:12;;;;;;;4.30;3.25;;;13.20;99.90;;;;;;5072391;28;20047;-63
2022/08/08 05:40:41;;;;;;;5.85;4.28;;;13.40;99.90;;;;;;5073645;28;20123;-64
2022/08/08 05:43:10;;;;;;;4.25;3.85;;;13.50;99.90;;;;;;5073693;28;20066;-62
2022/08/08 05:45:36;;;;;;;5.82;3.70;;;13.70;99.90;;;;;;5071991;28;20044;-63
2022/08/08 05:48:05;;;;;;;4.70;3.65;;;13.80;99.90;;;;;;5073429;28;20043;-64
2022/08/08 05:50:31;;;;;;;5.47;3.70;;;13.90;99.90;;;;;;5071869;28;20094;-64
2022/08/08 05:52:57;;;;;;;5.10;4.00;;;14.00;99.90;;;;;;5073250;28;20035;-64
2022/08/08 05:55:23;;;;;;;4.85;4.20;;;14.10;99.90;;;;;;5071756;28;20083;-64
2022/08/08 05:57:52;;;;;;;5.95;4.20;;;14.20;99.90;;;;;;5072071;28;20443;-64
2022/08/08 06:00:18;;;;;;;4.18;3.50;;;14.20;99.90;;;;;;5071740;28;20032;-63
2022/08/08 06:05:39;;;;;;;5.15;3.50;;;14.50;99.90;;;;;;5071526;28;20044;-65
2022/08/08 06:08:06;;;;;;;6.20;3.85;;;14.50;99.90;;;;;;5073076;28;20426;-64
2022/08/08 06:10:33;;;;;;;7.75;3.70;;;14.70;99.90;;;;;;5071871;28;20041;-63
2022/08/08 06:13:00;;;;;;;4.78;3.45;;;14.80;99.90;;;;;;5073097;28;20044;-63
2022/08/08 06:15:27;;;;;;;7.95;4.15;;;14.90;99.90;;;;;;5071563;28;20071;-62
2022/08/08 06:17:55;;;;;;;7.82;3.40;;;15.00;99.90;;;;;;5055131;28;20556;-64
2022/08/08 06:20:21;;;;;;;5.53;2.92;;;15.20;99.90;;;;;;5072762;28;20101;-63
2022/08/08 06:22:47;;;;;;;4.85;2.97;;;15.40;99.90;;;;;;5071444;28;20040;-65
2022/08/08 06:25:12;;;;;;;8.95;3.50;;;15.50;99.90;;;;;;5071617;28;20119;-65
2022/08/08 06:27:46;;;;;;;7.63;3.17;;;15.70;99.90;;;;;;5070751;28;20445;-65
2022/08/08 06:30:13;;;;;;;6.75;3.10;;;15.80;99.90;;;;;;5084059;28;20084;-64
2022/08/08 06:32:42;;;;;;;4.88;2.90;;;16.10;99.90;;;;;;5092788;28;20064;-63
2022/08/08 06:35:12;;;;;;;8.65;3.20;;;16.20;99.90;;;;;;5074560;28;20043;-63
2022/08/08 06:37:43;;;;;;;3.85;2.60;;;16.40;99.90;;;;;;5092328;28;20050;-64
2022/08/08 06:40:13;;;;;;;6.00;2.72;;;16.60;99.90;;;;;;5074501;28;20044;-64
2022/08/08 06:42:44;;;;;;;7.15;2.72;;;16.80;99.90;;;;;;5074391;28;20379;-64
2022/08/08 06:45:10;;;;;;;7.05;2.47;;;16.90;99.90;;;;;;5074619;28;20488;-63
2022/08/08 06:47:36;;;;;;;5.13;2.42;;;17.10;99.90;;;;;;5092425;28;20036;-63
2022/08/08 06:50:02;;;;;;;7.20;2.00;;;17.20;99.90;;;;;;5092558;28;20039;-64
2022/08/08 06:52:28;;;;;;;5.57;2.28;;;17.30;99.90;;;;;;5092508;28;20040;-64
2022/08/08 06:54:57;;;;;;;5.65;2.10;;;17.50;99.90;;;;;;5057291;28;20109;-63
2022/08/08 06:57:23;;;;;;;4.68;1.70;;;17.70;99.90;;;;;;5092280;28;20406;-65
2022/08/08 06:59:50;;;;;;;3.72;1.75;;;17.80;99.90;;;;;;5073860;28;20086;-65
2022/08/08 07:02:24;;;;;;;5.85;1.65;;;17.90;99.90;;;;;;5092656;28;20031;-65
2022/08/08 07:04:55;;;;;;;4.00;1.70;;;18.00;99.90;;;;;;5092003;28;20036;-63
2022/08/08 07:07:33;;;;;;;6.00;1.70;;;18.20;99.90;;;;;;5092159;28;20494;-64
2022/08/08 07:10:09;;;;;;;4.22;1.45;;;18.40;99.90;;;;;;5092018;28;20048;-64
2022/08/08 07:12:38;;;;;;;4.50;1.48;;;18.40;99.90;;;;;;5073884;28;20093;-64
2022/08/08 07:15:07;;;;;;;5.10;1.38;;;18.60;99.90;;;;;;5092072;28;20071;-61
2022/08/08 07:17:43;;;;;;;7.20;1.77;;;18.60;99.90;;;;;;5073819;28;20055;-64
2022/08/08 07:20:12;;;;;;;5.82;2.00;;;18.70;99.90;;;;;;5092051;28;20439;-64
2022/08/08 07:23:01;;;;;;;3.53;1.55;;;18.90;99.90;;;;;;5073667;28;20456;-64
2022/08/08 07:25:31;;;;;;;4.80;1.20;;;19.00;99.90;;;;;;5091913;28;20109;-63
2022/08/08 07:28:06;;;;;;;5.43;1.50;;;19.10;99.90;;;;;;5091645;28;20038;-63
2022/08/08 07:30:32;;;;;;;5.07;1.67;;;19.20;99.90;;;;;;5091541;28;20086;-64
2022/08/08 07:32:59;;;;;;;4.53;1.33;;;19.30;99.90;;;;;;5073321;28;20510;-64
2022/08/08 07:35:26;;;;;;;3.70;0.98;;;19.50;99.90;;;;;;5073311;28;20046;-65
2022/08/08 07:37:54;;;;;;;3.70;1.35;;;19.70;99.90;;;;;;5091705;28;20067;-62
2022/08/08 07:40:20;;;;;;;6.07;1.45;;;19.80;99.90;;;;;;5091612;28;20528;-62
2022/08/08 07:42:46;;;;;;;4.32;1.10;;;19.90;99.90;;;;;;5072986;28;20114;-65
2022/08/08 07:45:12;;;;;;;6.18;1.02;;;20.10;99.90;;;;;;5073228;28;20048;-65
2022/08/08 07:47:38;;;;;;;3.88;1.17;;;20.20;99.90;;;;;;5072964;28;20076;-64
2022/08/08 07:50:04;;;;;;;4.05;1.25;;;20.30;99.90;;;;;;5072754;28;21629;-63
2022/08/08 07:52:30;;;;;;;5.63;1.27;;;20.20;99.90;;;;;;5073421;28;20052;-63
2022/08/08 07:55:04;;;;;;;6.25;1.30;;;20.00;99.90;;;;;;5091008;28;20036;-63
2022/08/08 07:57:30;;;;;;;4.53;1.10;;;19.90;99.90;;;;;;5072983;28;20040;-64
2022/08/08 08:00:06;;;;;;;6.00;1.33;;;19.80;99.90;;;;;;5091138;28;20407;-64
2022/08/08 08:02:54;;;;;;;4.72;1.30;;;20.00;99.90;;;;;;5072620;28;20075;-64
2022/08/08 08:05:24;;;;;;;6.85;1.42;;;20.00;99.90;;;;;;5091498;28;20046;-65
2022/08/08 08:07:55;;;;;;;4.43;1.30;;;19.90;99.90;;;;;;5091072;28;20886;-65
2022/08/08 08:10:26;;;;;;;3.35;1.20;;;19.80;99.90;;;;;;5091284;28;20047;-64
2022/08/08 08:12:55;;;;;;;5.55;1.30;;;20.00;99.90;;;;;;5090708;28;20036;-62
2022/08/08 08:15:25;;;;;;;6.32;1.60;;;20.20;99.90;;;;;;5072875;28;20130;-63
2022/08/08 08:17:57;;;;;;;3.53;1.40;;;20.40;99.90;;;;;;5090875;28;20433;-64
2022/08/08 08:20:27;;;;;;;;;;;20.60;99.90;;;;;;5091650;28;20190;-63
2022/08/08 08:22:53;;;;;;;4.15;1.10;;;20.70;99.90;;;;;;5090752;28;20023;-65
2022/08/08 08:25:19;;;;;;;2.22;0.80;;;20.70;99.90;;;;;;5072801;28;20177;-64
2022/08/08 08:27:45;;;;;;;3.88;1.02;;;20.50;99.90;;;;;;5072759;28;20551;-64
2022/08/08 08:30:11;;;;;;;3.75;1.00;;;20.50;99.90;;;;;;5055376;28;20131;-64
2022/08/08 08:32:36;;;;;;;4.35;1.23;;;20.50;99.90;;;;;;5072660;28;20406;-64
2022/08/08 08:35:03;;;;;;;4.10;1.17;;;20.30;99.90;;;;;;5072525;28;20032;-63
2022/08/08 08:37:29;;;;;;;2.05;0.90;;;20.30;99.90;;;;;;5072725;28;20402;-64
2022/08/08 08:39:55;;;;;;;2.85;1.10;;;20.40;99.90;;;;;;5090659;28;20040;-64
2022/08/08 08:42:23;;;;;;;2.88;1.05;;;20.60;99.90;;;;;;5072581;28;20043;-63
2022/08/08 08:44:49;;;;;;;3.42;1.10;;;20.50;99.90;;;;;;5090780;28;20602;-63
2022/08/08 08:47:17;;;;;;;2.40;1.02;;;20.50;99.90;;;;;;5090526;28;20040;-64
2022/08/08 08:49:42;;;;;;;3.03;1.02;;;20.30;99.90;;;;;;5090508;28;20055;-65
2022/08/08 08:52:12;;;;;;;6.68;1.65;;;20.10;99.90;;;;;;5090274;28;20039;-64
2022/08/08 08:54:38;;;;;;;5.53;1.50;;;20.00;99.90;;;;;;5072665;28;20083;-64
2022/08/08 08:57:07;;;;;;;2.25;0.90;;;19.90;99.90;;;;;;5072207;28;20075;-65
2022/08/08 08:59:38;;;;;;;2.80;1.08;;;20.00;99.90;;;;;;5073417;28;20402;-65
2022/08/08 09:02:06;;;;;;;4.88;1.10;;;20.00;99.90;;;;;;5094413;28;20410;-63
2022/08/08 09:04:34;;;;;;;3.20;0.93;;;20.00;99.90;;;;;;5076362;28;20118;-65
2022/08/08 09:07:02;;;;;;;3.42;0.98;;;20.00;99.90;;;;;;5076455;28;20085;-63
2022/08/08 09:09:30;;;;;;;3.13;0.98;;;20.10;99.90;;;;;;5076404;28;20494;-63
2022/08/08 09:11:57;;;;;;;1.75;0.80;;;20.60;99.90;;;;;;5094446;28;20089;-63
2022/08/08 09:14:24;;;;;;;2.63;0.80;;;21.00;99.90;;;;;;5094143;28;20094;-65
2022/08/08 09:16:51;;;;;;;3.20;0.80;;;21.50;99.90;;;;;;5076301;28;20044;-65
2022/08/08 09:19:17;;;;;;;2.85;0.75;;;21.90;99.90;;;;;;5094149;28;20081;-64
2022/08/08 09:21:45;;;;;;;3.13;0.98;;;22.30;99.90;;;;;;5094451;28;20032;-63
2022/08/08 09:24:12;;;;;;;5.13;0.80;;;22.60;99.90;;;;;;5075776;28;20036;-62
2022/08/08 09:27:01;;;;;;;3.25;1.00;;;22.70;99.90;;;;;;5094254;28;20119;-64
2022/08/08 09:29:31;;;;;;;1.90;0.80;;;22.70;99.90;;;;;;5075558;28;20139;-62
2022/08/08 09:32:05;;;;;;;1.88;0.70;;;22.70;99.90;;;;;;5075698;28;20048;-66
2022/08/08 09:34:33;;;;;;;2.50;0.88;;;22.60;99.90;;;;;;5093770;28;20122;-63
2022/08/08 09:37:09;;;;;;;2.92;0.98;;;22.40;99.90;;;;;;5093973;28;20116;-63
2022/08/08 09:39:54;;;;;;;3.45;0.85;;;22.00;99.90;;;;;;5093826;28;20118;-63
2022/08/08 09:42:22;;;;;;;1.10;0.60;;;21.70;99.90;;;;;;5075338;28;20173;-64
2022/08/08 09:44:54;;;;;;;1.88;0.85;;;21.90;99.90;;;;;;5075241;28;20056;-65
2022/08/08 09:47:22;;;;;;;2.58;0.73;;;21.90;99.90;;;;;;5093582;28;20032;-64
2022/08/08 09:49:48;;;;;;;3.28;0.98;;;21.90;99.90;;;;;;5075298;28;20089;-64
2022/08/08 09:52:22;;;;;;;2.67;0.70;;;21.70;99.90;;;;;;5093625;28;20074;-63
2022/08/08 09:54:49;;;;;;;2.33;0.73;;;21.70;99.90;;;;;;5075358;28;20058;-64
2022/08/08 09:57:20;;;;;;;2.50;0.70;;;22.00;99.90;;;;;;5093736;28;20032;-63
2022/08/08 09:59:49;;;;;;;2.28;0.70;;;22.50;99.90;;;;;;5093760;28;20028;-64
2022/08/08 10:02:20;;;;;;;1.60;0.50;;;22.90;99.90;;;;;;5075321;28;20054;-65
2022/08/08 10:04:46;;;;;;;1.95;0.65;;;23.20;99.90;;;;;;5093563;28;20067;-63
2022/08/08 10:07:13;;;;;;;1.30;0.68;;;23.40;99.60;;;;;;5075252;28;20122;-65
2022/08/08 10:09:42;;;;;;;1.58;0.60;;;23.60;99.50;;;;;;5093143;28;20042;-63
2022/08/08 10:12:08;;;;;;;1.90;0.60;;;23.90;99.90;;;;;;5092305;28;20032;-63
2022/08/08 10:14:36;;;;;;;2.65;0.50;;;23.90;98.80;;;;;;5093087;28;20063;-63
2022/08/08 10:17:06;;;;;;;2.58;1.05;;;23.80;98.50;;;;;;5075059;28;20439;-65
2022/08/08 10:19:40;;;;;;;2.05;0.73;;;24.00;98.30;;;;;;5074662;28;20077;-63
2022/08/08 10:22:07;;;;;;;1.98;0.60;;;24.10;96.30;;;;;;5093000;28;20042;-65
2022/08/08 10:24:34;;;;;;;3.38;0.70;;;24.20;97.00;;;;;;5092829;28;20036;-66
2022/08/08 10:27:05;;;;;;;3.05;0.60;;;24.60;97.40;;;;;;5075107;28;20482;-64
2022/08/08 10:30:08;;;;;;;1.95;0.63;;;24.80;96.70;;;;;;5092820;28;20112;-64
2022/08/08 10:32:39;;;;;;;2.63;0.68;;;25.10;95.10;;;;;;5074495;28;20043;-62
2022/08/08 10:35:14;;;;;;;2.10;0.60;;;25.20;95.60;;;;;;5092882;28;20047;-64
2022/08/08 10:38:02;;;;;;;2.15;0.70;;;25.20;96.00;;;;;;5092795;28;20040;-64
2022/08/08 10:40:29;;;;;;;3.47;0.55;;;25.20;94.70;;;;;;5092725;28;20416;-65
2022/08/08 10:43:01;;;;;;;2.58;0.95;;;25.30;95.20;;;;;;5092843;28;20193;-65
2022/08/08 10:45:28;;;;;;;1.27;0.55;;;25.70;95.30;;;;;;5092861;28;20032;-65
2022/08/08 10:47:59;;;;;;;2.45;0.60;;;26.00;95.00;;;;;;5074827;28;20107;-64
2022/08/08 10:50:36;;;;;;;1.15;0.55;;;26.20;95.00;;;;;;5074657;28;20032;-65
2022/08/08 10:53:03;;;;;;;1.27;0.40;;;26.00;94.20;;;;;;5074646;28;20440;-63
2022/08/08 10:55:29;;;;;;;1.23;0.70;;;25.40;93.70;;;;;;5092499;28;20565;-63
2022/08/08 10:58:03;;;;;;;2.78;0.75;;;25.00;93.60;;;;;;5092387;28;20123;-65
2022/08/08 11:00:29;;;;;;;1.92;0.85;;;24.40;94.50;;;;;;5074219;28;20044;-63
2022/08/08 11:02:56;;;;;;;4.10;0.68;;;24.00;95.00;;;;;;5074056;28;20071;-63
2022/08/08 11:05:22;;;;;;;1.45;0.60;;;23.70;95.40;;;;;;5092605;28;20058;-64
2022/08/08 11:07:54;;;;;;;1.75;0.70;;;23.50;95.60;;;;;;5073842;28;20116;-65
2022/08/08 11:10:23;;;;;;;5.20;0.60;;;23.20;95.70;;;;;;5073937;28;20097;-65
2022/08/08 11:12:55;;;;;;;4.10;1.00;;;22.90;95.70;;;;;;5073908;28;20047;-64
2022/08/08 11:15:23;;;;;;;3.83;0.98;;;22.80;96.60;;;;;;5074051;28;20466;-64
2022/08/08 11:17:51;;;;;;;4.10;0.90;;;22.70;96.70;;;;;;5091880;28;20093;-64
2022/08/08 11:20:22;;;;;;;1.73;0.68;;;22.50;96.90;;;;;;5073964;28;20043;-64
2022/08/08 11:23:01;;;;;;;1.17;0.63;;;22.30;97.10;;;;;;5073507;28;20040;-65
2022/08/08 11:25:29;;;;;;;1.10;0.52;;;22.30;97.80;;;;;;5092016;28;20040;-64
2022/08/08 11:27:56;;;;;;;2.00;0.70;;;22.20;98.20;;;;;;5091826;28;20036;-65
2022/08/08 11:30:23;;;;;;;3.00;0.80;;;22.20;98.30;;;;;;5091693;28;20125;-65
2022/08/08 11:32:54;;;;;;;4.68;0.68;;;22.20;98.40;;;;;;5073264;28;20055;-64
2022/08/08 11:35:22;;;;;;;2.45;0.70;;;22.20;98.60;;;;;;5073433;28;20497;-65
2022/08/08 11:37:47;;;;;;;2.17;0.65;;;22.10;98.50;;;;;;5056819;28;20039;-64
2022/08/08 11:40:14;;;;;;;4.28;0.90;;;22.10;98.70;;;;;;5091662;28;20097;-64
2022/08/08 11:42:44;;;;;;;3.22;0.90;;;22.00;98.60;;;;;;5073367;28;20095;-63
2022/08/08 11:45:11;;;;;;;1.67;0.70;;;21.90;98.70;;;;;;5073489;28;20062;-64
2022/08/08 11:47:38;;;;;;;1.60;0.52;;;21.90;98.80;;;;;;5073085;28;20474;-65
2022/08/08 11:50:09;;;;;;;2.15;0.85;;;21.80;98.90;;;;;;5073340;28;20075;-64
2022/08/08 11:52:36;;;;;;;3.75;0.70;;;21.80;99.20;;;;;;5072820;28;20123;-65
2022/08/08 11:55:16;;;;;;;4.32;0.82;;;21.70;99.40;;;;;;5072935;28;20047;-65
2022/08/08 11:57:42;;;;;;;2.88;0.80;;;21.60;99.70;;;;;;5072844;28;20126;-63
2022/08/08 12:00:13;;;;;;;2.92;0.70;;;21.50;99.70;;;;;;5056206;28;20608;-63
2022/08/08 12:02:53;;;;;;;3.92;0.70;;;21.50;99.60;;;;;;5072975;28;20080;-64
2022/08/08 12:05:30;;;;;;;3.53;0.90;;;21.40;99.90;;;;;;5073099;28;20039;-64
2022/08/08 12:07:55;;;;;;;2.15;0.75;;;21.50;99.90;;;;;;5091041;28;20044;-64
2022/08/08 12:10:23;;;;;;;1.75;0.70;;;21.50;99.90;;;;;;5091144;28;20600;-63
2022/08/08 12:12:59;;;;;;;1.80;0.75;;;21.60;99.90;;;;;;5090895;28;20124;-65
2022/08/08 12:15:37;;;;;;;1.70;0.63;;;21.60;99.90;;;;;;5072822;28;20036;-63
2022/08/08 12:18:48;;;;;;;3.15;0.80;;;21.60;99.90;;;;;;5072921;28;20048;-63
2022/08/08 12:21:25;;;;;;;2.28;0.80;;;21.60;99.90;;;;;;4973406;28;20042;-64
2022/08/08 12:24:05;;;;;;;3.15;0.70;;;21.70;99.90;;;;;;4988958;28;20050;-64
2022/08/08 12:26:45;;;;;;;3.03;0.60;;;21.70;99.90;;;;;;4972847;28;20046;-66
2022/08/08 12:29:21;;;;;;;1.70;0.70;;;21.90;99.90;;;;;;4972814;28;20477;-65
2022/08/08 12:32:12;;;;;;;3.30;0.73;;;21.90;99.90;;;;;;4972998;28;20441;-66
2022/08/08 12:34:45;;;;;;;4.00;0.82;;;22.10;99.70;;;;;;4988521;28;20397;-66
2022/08/08 12:37:31;;;;;;;7.28;0.70;;;22.30;99.80;;;;;;4972659;28;20122;-65
2022/08/08 12:40:03;;;;;;;1.80;0.70;;;22.50;99.90;;;;;;4972648;28;20150;-65
2022/08/08 12:42:29;;;;;;;1.25;0.70;;;22.60;99.60;;;;;;4972807;28;20046;-64
2022/08/08 12:45:08;;;;;;;2.30;0.90;;;22.70;99.70;;;;;;4972710;28;20046;-66
2022/08/08 12:47:34;;;;;;;2.75;0.75;;;22.60;99.10;;;;;;4972938;28;20057;-65
2022/08/08 12:49:59;;;;;;;2.75;0.80;;;22.60;99.50;;;;;;4956119;28;20058;-65
2022/08/08 12:52:30;;;;;;;4.00;0.95;;;22.70;99.60;;;;;;4989052;28;20496;-65
2022/08/08 12:55:09;;;;;;;1.23;0.60;;;22.80;99.60;;;;;;4988798;28;20053;-63
2022/08/08 12:57:35;;;;;;;2.80;0.75;;;22.90;99.30;;;;;;5063265;28;20048;-63
2022/08/08 13:00:03;;;;;;;1.30;0.80;;;22.80;99.10;;;;;;5072387;28;20078;-64
2022/08/08 13:02:32;;;;;;;3.05;0.70;;;23.00;99.50;;;;;;5072256;28;20040;-62
2022/08/08 13:05:03;;;;;;;1.27;0.63;;;23.10;98.80;;;;;;5072334;28;20401;-64
2022/08/08 13:07:39;;;;;;;1.63;0.80;;;23.10;98.80;;;;;;5072452;28;20048;-62
2022/08/08 13:10:09;;;;;;;2.22;0.80;;;23.10;98.30;;;;;;5090359;28;20119;-63
2022/08/08 13:12:37;;;;;;;1.73;0.68;;;22.90;97.80;;;;;;5072450;28;20065;-63
2022/08/08 13:15:08;;;;;;;1.95;0.52;;;22.90;98.00;;;;;;5072104;28;20052;-62
2022/08/08 13:17:35;;;;;;;1.88;0.60;;;22.80;97.50;;;;;;5090713;28;20036;-63
2022/08/08 13:20:12;;;;;;;2.88;0.70;;;22.80;98.30;;;;;;5090314;28;20496;-66
2022/08/08 13:22:38;;;;;;;1.85;0.90;;;22.80;98.30;;;;;;5090616;28;20047;-65